Time;durP1;ratioP1;P1;durP2;ratioP2;P2;SDS_P1;SDS_P2;PMS_P1;PMS_P2;Temp;Humidity;BMP_temperature;BMP_pressure;BME280_temperature;BME280_humidity;BME280_pressure;Samples;Min_cycle;Max_cycle;Signal;HPM_P1;HPM_P2
2021/06/26 00:00:09;;;;;;;0.20;0.20;;;;;;;21.69;54.78;98184.37;128659;1097;115439;-89
2021/06/26 00:02:35;;;;;;;0.30;0.30;;;;;;;21.63;54.67;98192.20;128644;1097;115967;-89
2021/06/26 00:05:04;;;;;;;0.30;0.30;;;;;;;21.58;54.70;98200.80;128669;1097;115911;-87
2021/06/26 00:07:34;;;;;;;0.58;0.58;;;;;;;21.53;54.87;98196.45;129493;1096;23302;-87
2021/06/26 00:10:01;;;;;;;0.43;0.43;;;;;;;21.48;55.38;98202.31;128711;1100;115329;-89
2021/06/26 00:12:29;;;;;;;0.30;0.30;;;;;;;21.45;55.37;98199.56;128681;1100;115497;-89
2021/06/26 00:14:55;;;;;;;0.20;0.20;;;;;;;21.41;55.43;98207.77;128683;1100;115195;-90
2021/06/26 00:17:24;;;;;;;0.30;0.30;;;;;;;21.37;55.51;98215.19;128676;1100;115482;-89
2021/06/26 00:19:51;;;;;;;0.20;0.20;;;;;;;21.30;56.23;98213.19;128742;1100;22657;-89
2021/06/26 00:22:18;;;;;;;0.23;0.23;;;;;;;21.28;55.95;98214.73;128659;1097;115086;-89
2021/06/26 00:24:45;;;;;;;0.28;0.28;;;;;;;21.24;56.50;98213.93;128693;1097;115483;-87
2021/06/26 00:27:11;;;;;;;0.20;0.20;;;;;;;21.23;56.03;98209.63;128645;1097;115666;-86
2021/06/26 00:29:38;;;;;;;0.25;0.25;;;;;;;21.19;56.22;98220.56;128690;1097;115634;-87
2021/06/26 00:32:04;;;;;;;0.20;0.20;;;;;;;21.16;56.55;98221.31;128371;1099;115658;-87
2021/06/26 00:34:31;;;;;;;0.20;0.20;;;;;;;21.15;56.76;98227.19;129494;1097;22536;-87
2021/06/26 00:36:57;;;;;;;0.20;0.20;;;;;;;21.15;57.11;98218.98;128732;1097;115589;-87
2021/06/26 00:40:05;;;;;;;0.30;0.30;;;;;;;21.17;57.54;98222.10;128699;1096;115867;-90
2021/06/26 00:43:21;;;;;;;0.20;0.20;;;;;;;21.18;57.44;98240.91;128701;1097;114997;-90
2021/06/26 00:46:31;;;;;;;0.30;0.30;;;;;;;21.19;57.32;98242.47;128649;1100;115911;-90
2021/06/26 00:49:36;;;;;;;0.30;0.30;;;;;;;21.18;57.17;98251.85;128716;1097;115457;-90
2021/06/26 00:52:48;;;;;;;0.20;0.20;;;;;;;21.14;57.00;98242.02;128713;1098;115074;-90
2021/06/26 00:55:54;;;;;;;0.20;0.20;;;;;;;21.11;56.86;98240.86;128757;1100;115329;-90
2021/06/26 00:58:23;;;;;;;0.20;0.20;;;;;;;21.07;57.31;98249.05;128675;1100;115244;-90
2021/06/26 01:00:50;;;;;;;0.33;0.33;;;;;;;21.03;57.43;98250.98;128652;1097;115431;-89
2021/06/26 01:03:32;;;;;;;0.23;0.23;;;;;;;21.02;57.27;98248.61;128628;1096;115540;-90
2021/06/26 01:06:18;;;;;;;;;;;;;;;20.96;58.22;98252.88;128727;1096;115499;-90
2021/06/26 01:09:44;;;;;;;0.20;0.20;;;;;;;20.89;57.18;98247.36;128772;1097;101733;-90
2021/06/26 01:12:30;;;;;;;0.25;0.25;;;;;;;20.84;57.31;98237.55;128682;1100;115211;-88
2021/06/26 01:15:00;;;;;;;0.30;0.30;;;;;;;20.77;58.32;98230.07;128652;1100;115977;-89
2021/06/26 01:17:26;;;;;;;0.20;0.20;;;;;;;20.71;57.42;98242.55;128234;1096;115385;-88
2021/06/26 01:19:52;;;;;;;0.20;0.20;;;;;;;20.66;57.86;98228.42;129508;1096;22774;-88
2021/06/26 01:22:22;;;;;;;0.20;0.20;;;;;;;20.63;57.96;98231.91;128658;1096;115339;-89
2021/06/26 01:24:51;;;;;;;0.30;0.30;;;;;;;20.58;57.96;98231.09;128678;1098;115807;-87
2021/06/26 01:27:17;;;;;;;0.20;0.20;;;;;;;20.57;58.31;98223.28;128089;1100;115302;-87
2021/06/26 01:29:49;;;;;;;0.30;0.30;;;;;;;20.57;58.43;98223.28;128680;1100;115733;-89
2021/06/26 01:32:18;;;;;;;0.20;0.20;;;;;;;20.59;58.72;98231.88;128654;1096;115427;-89
2021/06/26 01:35:11;;;;;;;0.20;0.20;;;;;;;20.63;59.20;98223.70;129480;1097;23355;-89
2021/06/26 01:37:58;;;;;;;0.25;0.25;;;;;;;20.67;59.42;98228.06;129504;1096;22952;-89
2021/06/26 01:40:28;;;;;;;0.30;0.30;;;;;;;20.71;59.25;98228.88;129534;1096;22539;-89
2021/06/26 01:43:36;;;;;;;0.20;0.20;;;;;;;20.71;59.02;98230.80;128678;1100;115138;-91
2021/06/26 01:47:02;;;;;;;0.23;0.23;;;;;;;20.73;58.58;98226.52;128791;1096;115134;-90
2021/06/26 01:50:29;;;;;;;0.20;0.20;;;;;;;20.75;58.30;98237.08;129542;1096;22562;-90
2021/06/26 01:54:01;;;;;;;0.20;0.20;;;;;;;20.73;58.24;98237.47;128680;1096;115641;-90
2021/06/26 01:57:27;;;;;;;0.20;0.20;;;;;;;20.74;57.78;98243.72;128676;1097;115516;-90
2021/06/26 02:00:53;;;;;;;0.30;0.30;;;;;;;20.78;57.58;98250.01;128668;1096;115432;-91
2021/06/26 02:04:20;;;;;;;0.30;0.30;;;;;;;20.76;57.43;98249.62;128700;1100;116027;-91
2021/06/26 02:07:46;;;;;;;0.20;0.20;;;;;;;20.76;57.56;98239.45;128732;1100;115481;-91
2021/06/26 02:11:16;;;;;;;0.35;0.35;;;;;;;20.76;57.48;98247.66;129520;1099;22604;-91
2021/06/26 02:14:43;;;;;;;0.20;0.20;;;;;;;20.74;57.21;98257.41;128613;1100;115608;-91
2021/06/26 02:18:09;;;;;;;0.20;0.20;;;;;;;20.72;57.73;98257.02;128700;1100;115985;-90
2021/06/26 02:21:36;;;;;;;0.20;0.20;;;;;;;20.69;58.21;98253.08;128698;1100;115481;-90
2021/06/26 02:25:05;;;;;;;0.30;0.30;;;;;;;20.67;58.13;98257.34;128706;1100;115182;-91
2021/06/26 02:28:25;;;;;;;0.20;0.20;;;;;;;20.64;58.12;98261.64;128652;1100;115496;-87
2021/06/26 02:31:51;;;;;;;0.20;0.20;;;;;;;20.59;58.22;98260.05;128692;1100;115071;-89
2021/06/26 02:35:17;;;;;;;0.13;0.13;;;;;;;20.58;58.25;98274.08;129527;1099;22526;-90
2021/06/26 02:38:22;;;;;;;;;;;;;;;20.55;58.58;98267.44;128714;1100;115536;-90
2021/06/26 02:41:32;;;;;;;0.20;0.20;;;;;;;20.55;59.08;98274.83;128833;1100;102601;-90
2021/06/26 02:44:58;;;;;;;0.23;0.23;;;;;;;20.61;60.05;98281.55;128737;1100;115975;-90
2021/06/26 02:47:45;;;;;;;0.20;0.20;;;;;;;20.64;59.81;98278.06;128729;1100;115650;-90
2021/06/26 02:50:33;;;;;;;0.30;0.30;;;;;;;20.68;59.44;98280.83;128675;1100;115775;-88
2021/06/26 02:53:27;;;;;;;0.28;0.28;;;;;;;20.69;59.37;98277.70;128724;1099;115574;-89
2021/06/26 02:56:53;;;;;;;0.25;0.25;;;;;;;20.72;59.18;98282.42;128640;1099;115766;-90
2021/06/26 03:00:15;;;;;;;0.30;0.30;;;;;;;20.73;59.21;98281.25;128683;1100;115836;-90
2021/06/26 03:03:28;;;;;;;0.30;0.30;;;;;;;20.74;59.18;98282.03;128699;1100;115959;-89
2021/06/26 03:06:54;;;;;;;0.30;0.30;;;;;;;20.72;59.25;98282.42;128690;1098;115805;-90
2021/06/26 03:09:40;;;;;;;0.20;0.20;;;;;;;20.69;59.43;98279.66;128717;1100;115614;-90
2021/06/26 03:13:06;;;;;;;0.30;0.30;;;;;;;20.66;59.46;98280.41;128661;1098;116648;-90
2021/06/26 03:16:32;;;;;;;0.20;0.20;;;;;;;20.62;59.50;98287.80;128647;1100;115636;-90
2021/06/26 03:19:42;;;;;;;0.30;0.30;;;;;;;20.58;60.16;98287.77;128695;1099;114870;-90
2021/06/26 03:22:52;;;;;;;0.20;0.20;;;;;;;20.55;59.70;98288.52;129082;1100;115935;-90
2021/06/26 03:26:03;;;;;;;0.30;0.30;;;;;;;20.52;59.61;98292.80;128939;1100;22574;-88
2021/06/26 03:28:39;;;;;;;0.20;0.20;;;;;;;20.51;60.44;98293.16;128954;1098;122405;-90
2021/06/26 03:31:13;;;;;;;0.40;0.40;;;;;;;20.52;60.89;98294.76;127821;1100;115348;-89
2021/06/26 03:34:35;;;;;;;0.30;0.30;;;;;;;20.51;61.26;98288.48;128660;1100;115744;-91
2021/06/26 03:37:45;;;;;;;0.30;0.30;;;;;;;20.48;61.08;98286.48;128555;1100;115226;-88
2021/06/26 03:41:11;;;;;;;0.23;0.23;;;;;;;20.48;60.84;98288.44;128954;1099;115299;-90
2021/06/26 03:44:03;;;;;;;0.20;0.20;;;;;;;20.49;60.51;98290.03;129498;1100;22646;-89
2021/06/26 03:46:57;;;;;;;0.20;0.20;;;;;;;20.46;61.14;98297.00;129505;1098;22565;-90
2021/06/26 03:50:14;;;;;;;0.30;0.30;;;;;;;20.45;60.72;98295.44;128823;1100;22565;-89
2021/06/26 03:52:40;;;;;;;0.20;0.20;;;;;;;20.43;60.69;98291.50;129087;1100;22584;-89
2021/06/26 03:55:12;;;;;;;0.20;0.20;;;;;;;20.43;60.57;98297.75;127843;1098;115078;-89
2021/06/26 03:57:39;;;;;;;0.20;0.20;;;;;;;20.44;60.57;98293.88;127900;1099;115764;-89
2021/06/26 04:00:06;;;;;;;0.25;0.25;;;;;;;20.42;60.90;98293.45;127776;1100;115465;-89
2021/06/26 04:02:32;;;;;;;0.20;0.20;;;;;;;20.43;60.68;98291.50;127779;1100;116224;-89
2021/06/26 04:05:29;;;;;;;0.20;0.20;;;;;;;20.44;61.13;98298.56;127806;1098;115692;-90
2021/06/26 04:07:56;;;;;;;0.20;0.20;;;;;;;20.48;61.76;98288.44;129467;1100;22601;-89
2021/06/26 04:10:23;;;;;;;0.40;0.40;;;;;;;20.53;61.88;98282.65;128648;1100;23133;-89
2021/06/26 04:13:11;;;;;;;0.38;0.38;;;;;;;20.61;61.59;98280.77;127790;1100;115268;-89
2021/06/26 04:15:57;;;;;;;0.20;0.20;;;;;;;20.70;60.89;98287.47;128718;1100;115351;-89
2021/06/26 04:18:32;;;;;;;0.20;0.20;;;;;;;20.78;60.38;98286.36;128548;1100;115205;-89
2021/06/26 04:20:58;;;;;;;0.30;0.30;;;;;;;20.85;59.85;98285.64;127871;1100;115739;-89
2021/06/26 04:23:27;;;;;;;0.23;0.23;;;;;;;20.92;59.29;98285.70;127876;1100;116048;-89
2021/06/26 04:30:02;;;;;;;0.20;0.20;;;;;;;21.07;58.82;98292.07;129730;1095;22553;-83
2021/06/26 04:40:12;;;;;;;0.20;0.20;;;;;;;21.24;57.90;98279.65;128617;1100;115053;-83
2021/06/26 04:43:38;;;;;;;0.20;0.20;;;;;;;21.28;57.94;98288.67;128850;1098;115226;-84
2021/06/26 04:47:05;;;;;;;0.20;0.20;;;;;;;21.27;58.10;98284.37;128896;1098;115489;-84
2021/06/26 04:50:42;;;;;;;;;;;;;;;;;;;;;
2021/06/26 05:04:32;;;;;;;0.30;0.30;;;;;;;21.29;58.25;98282.80;128697;1096;115602;-83
2021/06/26 05:08:01;;;;;;;0.20;0.20;;;;;;;21.32;57.91;98282.07;128627;1096;115274;-84
2021/06/26 05:11:29;;;;;;;0.20;0.20;;;;;;;21.37;57.64;98283.66;128855;1096;115344;-84
2021/06/26 05:15:03;;;;;;;0.20;0.20;;;;;;;21.46;57.93;98284.11;129658;1096;22580;-82
2021/06/26 05:18:30;;;;;;;0.20;0.20;;;;;;;21.58;57.54;98290.44;128578;1096;114991;-84
2021/06/26 05:21:56;;;;;;;0.30;0.30;;;;;;;21.68;57.17;98282.24;128824;1096;116056;-83
2021/06/26 05:25:23;;;;;;;0.40;0.40;;;;;;;21.79;57.13;98279.55;128837;1096;115127;-82
2021/06/26 05:35:51;;;;;;;0.30;0.30;;;;;;;22.10;56.03;98272.59;129309;1100;22665;-83
2021/06/26 05:39:18;;;;;;;0.30;0.30;;;;;;;22.19;55.83;98272.25;129644;1096;22554;-83
2021/06/26 05:42:47;;;;;;;0.23;0.23;;;;;;;22.32;55.51;98284.41;128878;1096;115014;-83
2021/06/26 05:46:13;;;;;;;0.30;0.30;;;;;;;22.41;55.43;98284.83;128895;1096;115674;-83
2021/06/26 05:53:25;;;;;;;0.20;0.20;;;;;;;22.64;54.84;98300.93;128657;1096;114885;-83
2021/06/26 05:56:58;;;;;;;;;;;;;;;;;;;;;
2021/06/26 06:00:51;;;;;;;0.30;0.30;;;;;;;22.90;54.07;98305.23;128691;1096;115827;-85
2021/06/26 06:03:55;;;;;;;0.20;0.20;;;;;;;22.99;53.13;98305.66;128742;1096;115333;-82
2021/06/26 06:07:23;;;;;;;0.30;0.30;;;;;;;23.07;53.45;98300.95;128872;1096;114997;-83
2021/06/26 06:10:50;;;;;;;0.30;0.30;;;;;;;23.16;53.09;98297.80;128820;1095;115919;-83
2021/06/26 06:14:16;;;;;;;0.30;0.30;;;;;;;23.24;52.90;98305.63;128823;1096;114943;-82
2021/06/26 06:17:51;;;;;;;0.30;0.30;;;;;;;23.34;51.83;98309.52;129688;1096;22551;-86
2021/06/26 06:28:13;;;;;;;0.30;0.30;;;;;;;23.61;50.63;98317.30;128469;1096;115242;-83
2021/06/26 06:31:39;;;;;;;0.30;0.30;;;;;;;23.69;50.36;98324.38;128839;1096;115543;-84
2021/06/26 06:35:07;;;;;;;0.35;0.35;;;;;;;23.83;50.67;98329.05;128865;1096;115656;-84
2021/06/26 06:38:39;;;;;;;0.30;0.30;;;;;;;23.98;50.24;98325.84;129160;1100;115558;-84
2021/06/26 06:52:14;;;;;;;0.38;0.38;;;;;;;24.44;49.59;98335.05;128835;1095;115314;-84
2021/06/26 06:55:51;;;;;;;0.33;0.33;;;;;;;24.55;49.52;98341.27;128795;1096;115576;-83
2021/06/26 08:11:39;;;;;;;0.30;0.30;;;;;;;26.70;44.44;98350.88;129046;1100;114797;-84
2021/06/26 10:33:18;;;;;;;0.40;0.40;;;;;;;30.13;33.51;98312.06;128834;1097;114816;-84
2021/06/26 10:50:56;;;;;;;0.50;0.50;;;;;;;30.94;32.23;98313.55;129594;1096;22537;-86
2021/06/26 11:03:43;;;;;;;0.60;0.60;;;;;;;31.46;30.81;98320.53;128743;1100;115943;-85
2021/06/26 11:07:22;;;;;;;0.70;0.70;;;;;;;31.76;30.57;98321.84;128773;1100;115691;-85
2021/06/26 11:10:50;;;;;;;0.45;0.45;;;;;;;31.96;30.42;98308.38;128513;1099;115334;-86
2021/06/26 11:24:30;;;;;;;0.60;0.60;;;;;;;32.67;29.61;98306.86;127406;1102;120883;-85
2021/06/26 11:48:15;;;;;;;0.80;0.80;;;;;;;33.51;26.16;98292.58;128795;1096;115217;-84
2021/06/26 11:55:20;;;;;;;0.53;0.53;;;;;;;33.71;26.24;98287.27;128763;1096;115587;-85
2021/06/26 12:01:56;;;;;;;0.60;0.60;;;;;;;34.02;26.27;98289.10;128796;1096;115066;-85
2021/06/26 12:05:39;;;;;;;0.70;0.70;;;;;;;34.29;26.18;98282.64;128808;1097;115311;-85
2021/06/26 12:19:27;;;;;;;0.73;0.73;;;;;;;34.82;24.58;98276.50;128828;1095;115417;-85
2021/06/26 12:22:54;;;;;;;0.63;0.63;;;;;;;34.93;24.43;98278.73;128486;1097;115362;-85
2021/06/26 12:26:15;;;;;;;0.65;0.65;;;;;;;34.88;24.23;98287.80;128831;1097;115595;-85
2021/06/26 12:43:11;;;;;;;0.60;0.60;;;;;;;35.74;23.54;98275.78;128819;1100;115586;-84
2021/06/26 12:46:37;;;;;;;0.70;0.70;;;;;;;35.67;23.10;98264.19;128529;1100;115699;-84
2021/06/26 12:50:13;;;;;;;0.60;0.60;;;;;;;35.61;23.66;98266.90;128829;1098;115877;-84
2021/06/26 12:53:44;;;;;;;0.60;0.60;;;;;;;35.82;22.76;98250.95;128858;1100;116234;-84
2021/06/26 12:57:22;;;;;;;0.63;0.63;;;;;;;36.12;22.54;98248.92;128564;1100;115853;-84
2021/06/26 13:00:43;;;;;;;0.70;0.70;;;;;;;36.18;22.62;98251.80;128439;1100;115548;-84
2021/06/26 13:04:15;;;;;;;0.90;0.90;;;;;;;36.33;22.34;98253.31;128808;1098;115460;-84
2021/06/26 13:07:48;;;;;;;0.58;0.58;;;;;;;36.68;21.94;98249.75;128582;1100;115532;-83
2021/06/26 13:11:16;;;;;;;0.90;0.90;;;;;;;36.91;22.36;98248.01;128795;1100;115281;-84
2021/06/26 13:14:43;;;;;;;0.60;0.60;;;;;;;36.90;22.15;98238.02;129611;1096;22614;-85
2021/06/26 13:18:29;;;;;;;;;;;;;;;;;;;;;
2021/06/26 13:25:26;;;;;;;0.70;0.70;;;;;;;37.76;21.01;98242.04;128545;1098;115473;-85
2021/06/26 13:28:53;;;;;;;0.78;0.78;;;;;;;38.06;20.58;98245.39;128568;1098;115772;-86
2021/06/26 13:32:18;;;;;;;;;;;;;;;;;;;;;
2021/06/26 13:41:47;;;;;;;1.05;1.05;;;;;;;38.22;20.00;98226.33;129642;1096;22638;-85
2021/06/26 13:48:43;;;;;;;0.65;0.65;;;;;;;38.09;20.36;98225.99;128765;1099;115628;-85
2021/06/26 14:14:28;;;;;;;0.68;0.68;;;;;;;39.10;18.72;98209.63;128192;1096;115079;-84
2021/06/26 14:24:26;;;;;;;0.70;0.70;;;;;;;39.20;19.27;98208.90;128265;1097;115085;-86
2021/06/26 14:31:27;;;;;;;0.93;0.93;;;;;;;39.88;18.05;98206.19;128859;1096;115704;-83
2021/06/26 14:38:31;;;;;;;0.70;0.70;;;;;;;40.22;17.11;98207.70;128711;1097;115222;-84
2021/06/26 14:56:12;;;;;;;0.70;0.70;;;;;;;41.88;15.61;98199.45;128528;1096;115782;-84
2021/06/26 15:06:37;;;;;;;0.90;0.90;;;;;;;42.82;15.03;98196.91;128520;1096;115214;-84
2021/06/26 15:09:47;;;;;;;0.90;0.90;;;;;;;43.17;14.76;98203.68;128603;1096;115943;-85
2021/06/26 15:13:11;;;;;;;;;;;;;;;;;;;;;
2021/06/26 15:16:40;;;;;;;0.90;0.90;;;;;;;44.04;14.06;98192.77;128799;1096;115280;-84
2021/06/26 15:20:37;;;;;;;0.88;0.88;;;;;;;44.53;13.48;98192.38;128792;1096;115333;-83
2021/06/26 15:23:40;;;;;;;1.00;1.00;;;;;;;44.89;13.23;98188.31;129323;1096;22540;-85
2021/06/26 15:27:08;;;;;;;0.98;0.98;;;;;;;45.08;12.29;98180.39;129627;1096;22531;-85
2021/06/26 15:37:27;;;;;;;1.00;1.00;;;;;;;45.86;11.63;98179.84;128742;1097;115158;-83
2021/06/26 15:40:53;;;;;;;1.00;1.00;;;;;;;46.28;10.86;98177.70;128723;1097;115568;-84
2021/06/26 15:44:19;;;;;;;1.10;1.10;;;;;;;46.90;11.58;98170.98;128597;1096;115386;-85
2021/06/26 15:57:50;;;;;;;1.00;1.00;;;;;;;48.22;9.91;98176.28;128773;1096;115380;-82
2021/06/26 16:22:19;;;;;;;1.03;1.03;;;;;;;46.12;11.00;98179.66;128706;1100;115453;-87
2021/06/26 16:40:58;;;;;;;0.70;0.70;;;;;;;40.55;15.62;98165.82;128742;1097;115169;-84
2021/06/26 17:38:10;;;;;;;0.60;0.60;;;;;;;32.30;25.00;98192.43;128693;1098;116136;-86
2021/06/26 17:40:36;;;;;;;0.50;0.50;;;;;;;32.13;25.01;98191.16;129527;1100;22545;-89
2021/06/26 17:43:03;;;;;;;0.60;0.60;;;;;;;31.96;24.99;98193.42;128655;1100;116448;-89
2021/06/26 17:45:30;;;;;;;0.40;0.40;;;;;;;31.83;25.42;98193.47;127795;1100;115592;-89
2021/06/26 17:47:56;;;;;;;0.45;0.45;;;;;;;31.67;25.62;98202.83;127866;1100;115786;-89
2021/06/26 17:50:25;;;;;;;0.60;0.60;;;;;;;31.53;25.93;98193.03;128693;1099;116702;-89
2021/06/26 17:52:51;;;;;;;0.50;0.50;;;;;;;31.37;26.16;98198.80;128667;1100;22583;-89
2021/06/26 17:55:18;;;;;;;0.50;0.50;;;;;;;31.25;26.42;98202.41;128594;1100;115022;-88
2021/06/26 17:57:44;;;;;;;0.45;0.45;;;;;;;31.14;26.41;98202.02;128228;1100;116158;-89
2021/06/26 18:00:15;;;;;;;0.40;0.40;;;;;;;31.00;26.92;98198.49;128264;1100;115797;-89
2021/06/26 18:02:41;;;;;;;0.60;0.60;;;;;;;30.86;27.09;98210.13;128617;1100;116541;-89
2021/06/26 18:05:09;;;;;;;0.40;0.40;;;;;;;30.73;27.32;98217.69;127858;1100;116300;-89
2021/06/26 18:07:36;;;;;;;0.40;0.40;;;;;;;30.60;27.52;98214.95;128694;1100;22534;-89
2021/06/26 18:10:06;;;;;;;0.40;0.40;;;;;;;30.47;27.67;98214.20;128639;1100;115232;-89
2021/06/26 18:12:34;;;;;;;0.48;0.48;;;;;;;30.33;28.36;98216.20;128636;1098;115922;-88
2021/06/26 18:15:00;;;;;;;0.50;0.50;;;;;;;30.22;28.13;98218.57;127858;1100;115808;-89
2021/06/26 18:17:26;;;;;;;0.53;0.53;;;;;;;30.07;28.56;98220.21;127856;1100;115677;-89
2021/06/26 18:19:52;;;;;;;0.60;0.60;;;;;;;29.94;28.58;98220.19;129492;1100;22602;-89
2021/06/26 18:22:18;;;;;;;0.40;0.40;;;;;;;29.81;28.95;98224.95;128664;1100;115438;-89
2021/06/26 18:24:44;;;;;;;0.45;0.45;;;;;;;29.67;29.00;98211.49;127877;1100;116055;-89
2021/06/26 18:27:10;;;;;;;0.40;0.40;;;;;;;29.56;29.07;98218.13;127842;1100;115501;-89
2021/06/26 18:44:14;;;;;;;0.50;0.50;;;;;;;28.76;30.50;98242.83;128736;1096;115037;-85
2021/06/26 18:47:51;;;;;;;0.40;0.40;;;;;;;28.59;31.09;98246.84;129037;1097;115399;-84
2021/06/26 18:54:53;;;;;;;0.50;0.50;;;;;;;28.20;32.36;98248.52;128830;1096;116185;-83
2021/06/26 19:21:17;;;;;;;0.50;0.50;;;;;;;26.79;35.29;98279.28;128743;1100;115005;-83
2021/06/26 20:51:36;;;;;;;0.40;0.40;;;;;;;23.75;42.73;98278.81;128843;1100;114970;-83
2021/06/26 20:55:03;;;;;;;0.30;0.30;;;;;;;23.67;42.71;98280.80;128847;1100;116006;-85
2021/06/26 20:58:35;;;;;;;0.38;0.38;;;;;;;23.59;43.19;98292.98;128860;1097;115362;-84
2021/06/26 21:02:02;;;;;;;0.20;0.20;;;;;;;23.47;43.59;98287.91;128579;1097;115145;-85
2021/06/26 21:12:29;;;;;;;0.30;0.30;;;;;;;23.23;44.17;98284.83;129401;1097;22588;-85
2021/06/26 21:25:51;;;;;;;;;;;;;;;;;;;;;
2021/06/26 21:29:09;;;;;;;0.20;0.20;;;;;;;23.12;44.92;98288.78;128462;1100;115047;-84
2021/06/26 21:33:00;;;;;;;0.23;0.23;;;;;;;23.08;44.99;98288.78;128787;1098;114935;-84
2021/06/26 21:41:56;;;;;;;;;;;;;;;22.96;47.48;98291.94;128835;1098;115528;-84
2021/06/26 21:45:23;;;;;;;0.30;0.30;;;;;;;22.91;45.58;98295.87;128925;1100;101483;-84
2021/06/26 21:48:50;;;;;;;0.30;0.30;;;;;;;22.87;45.78;98300.55;128717;1100;115455;-84
2021/06/26 21:52:19;;;;;;;0.30;0.30;;;;;;;22.78;46.16;98292.68;128837;1100;116087;-84
2021/06/26 21:56:17;;;;;;;0.30;0.30;;;;;;;22.72;46.51;98301.72;128647;1100;116032;-85
2021/06/26 21:59:19;;;;;;;0.20;0.20;;;;;;;22.65;46.49;98297.00;127707;1100;114892;-83
2021/06/26 22:02:47;;;;;;;0.30;0.30;;;;;;;22.61;46.85;98300.92;129217;1100;22644;-83
2021/06/26 22:06:19;;;;;;;0.30;0.30;;;;;;;22.54;46.98;98290.72;128175;1098;115796;-83
2021/06/26 22:12:36;;;;;;;0.30;0.30;;;;;;;22.45;47.43;98296.59;128833;1099;115572;-82
2021/06/26 22:16:03;;;;;;;0.30;0.30;;;;;;;22.40;47.47;98288.76;128860;1100;115751;-84
2021/06/26 22:19:30;;;;;;;0.30;0.30;;;;;;;22.36;47.75;98287.16;128595;1100;115645;-84
2021/06/26 22:22:58;;;;;;;0.30;0.30;;;;;;;22.30;47.84;98287.55;128816;1098;115569;-84
2021/06/26 22:29:58;;;;;;;0.20;0.20;;;;;;;22.20;48.27;98293.79;129680;1099;22548;-83
2021/06/26 22:33:27;;;;;;;0.25;0.25;;;;;;;22.16;48.67;98289.47;128609;1100;115456;-82
2021/06/26 22:37:15;;;;;;;0.20;0.20;;;;;;;22.12;48.48;98288.65;128650;1097;115667;-83
2021/06/26 22:40:24;;;;;;;0.20;0.20;;;;;;;22.06;48.97;98286.30;128659;1100;115492;-83
2021/06/26 22:43:52;;;;;;;0.20;0.20;;;;;;;22.01;48.94;98280.42;128750;1100;115218;-83
2021/06/26 22:47:29;;;;;;;;;;;;;;;;;;;;;
2021/06/26 22:50:46;;;;;;;0.23;0.23;;;;;;;21.92;49.14;98282.72;129669;1100;22578;-84
2021/06/26 22:53:52;;;;;;;;;;;;;;;21.87;49.61;98297.59;128783;1097;114994;-83
2021/06/26 23:00:56;;;;;;;0.20;0.20;;;;;;;21.78;49.88;98300.70;128554;1100;115751;-84
2021/06/26 23:04:23;;;;;;;0.20;0.20;;;;;;;21.73;50.04;98297.52;128807;1100;115715;-84
2021/06/26 23:11:39;;;;;;;0.25;0.25;;;;;;;21.62;50.56;98296.72;128277;1100;115607;-83
2021/06/26 23:15:05;;;;;;;0.25;0.25;;;;;;;21.56;50.56;98305.28;128525;1097;115664;-83
2021/06/26 23:18:41;;;;;;;0.30;0.30;;;;;;;21.50;50.69;98300.57;128793;1099;115678;-84
2021/06/26 23:22:14;;;;;;;0.30;0.30;;;;;;;21.44;50.93;98300.14;128664;1100;115457;-84
2021/06/26 23:25:41;;;;;;;0.20;0.20;;;;;;;21.37;50.98;98305.56;128542;1100;115407;-82
2021/06/26 23:29:10;;;;;;;0.20;0.20;;;;;;;21.32;51.29;98303.98;128835;1100;115162;-83
2021/06/26 23:43:13;;;;;;;0.30;0.30;;;;;;;21.05;52.12;98310.81;128384;1100;115162;-82
2021/06/26 23:46:40;;;;;;;0.20;0.20;;;;;;;20.98;52.64;98317.02;128867;1099;115204;-82
2021/06/26 23:50:12;;;;;;;0.20;0.20;;;;;;;20.90;52.82;98312.65;128812;1098;115672;-82
2021/06/26 23:53:50;;;;;;;;;;;;;;;;;;;;;
2021/06/26 23:57:07;;;;;;;0.30;0.30;;;;;;;20.81;53.08;98328.61;128392;1100;115890;-83
